Time;durP1;ratioP1;P1;durP2;ratioP2;P2;SDS_P1;SDS_P2;PMS_P1;PMS_P2;Temp;Humidity;BMP_temperature;BMP_pressure;BME280_temperature;BME280_humidity;BME280_pressure;Samples;Min_cycle;Max_cycle;Signal;HPM_P1;HPM_P2
2022/11/07 00:00:27;;;;;;;;;;;;;;;10.36;83.95;93669.78;5052683;28;19921;-34
2022/11/07 00:02:52;;;;;;;;;;;;;;;10.17;85.00;93678.31;5052401;28;20472;-34
2022/11/07 00:05:17;;;;;;;;;;;;;;;10.13;85.45;93677.94;5052756;28;19909;-34
2022/11/07 00:07:42;;;;;;;;;;;;;;;10.18;85.55;93674.28;5052251;28;19909;-34
2022/11/07 00:10:08;;;;;;;;;;;;;;;10.21;86.03;93681.47;5052592;28;19916;-34
2022/11/07 00:12:36;;;;;;;;;;;;;;;10.31;86.24;93671.41;5052557;28;19909;-34
2022/11/07 00:15:02;;;;;;;;;;;;;;;10.32;86.37;93680.44;5052028;28;20403;-34
2022/11/07 00:17:28;;;;;;;;;;;;;;;10.34;86.81;93680.66;5052412;28;19912;-34
2022/11/07 00:19:53;;;;;;;;;;;;;;;10.40;86.58;93672.94;5051998;28;20423;-34
2022/11/07 00:22:18;;;;;;;;;;;;;;;10.35;87.26;93669.06;5052060;28;19909;-34
2022/11/07 00:24:44;;;;;;;;;;;;;;;10.42;87.33;93675.91;5052027;28;19958;-34
2022/11/07 00:27:09;;;;;;;;;;;;;;;10.43;87.66;93667.09;5051975;28;20562;-34
2022/11/07 00:29:34;;;;;;;;;;;;;;;10.47;87.45;93678.53;5051806;28;19999;-34
2022/11/07 00:31:59;;;;;;;;;;;;;;;10.55;89.09;93670.28;5034074;28;19909;-34
2022/11/07 00:34:25;;;;;;;;;;;;;;;10.63;89.78;93669.03;5052089;28;20038;-34
2022/11/07 00:36:50;;;;;;;;;;;;;;;10.68;89.91;93670.91;5052118;28;19916;-34
2022/11/07 00:39:15;;;;;;;;;;;;;;;10.76;90.16;93664.72;5060736;28;19917;-34
2022/11/07 00:41:40;;;;;;;;;;;;;;;10.61;89.94;93666.09;5071618;28;19914;-34
2022/11/07 00:44:06;;;;;;;;;;;;;;;10.72;88.91;93665.03;5071858;28;19919;-34
2022/11/07 00:46:31;;;;;;;;;;;;;;;10.67;88.02;93668.72;5071592;28;19932;-34
2022/11/07 00:48:56;;;;;;;;;;;;;;;10.68;86.64;93669.47;5071592;28;20400;-34
2022/11/07 00:51:23;;;;;;;;;;;;;;;10.64;84.79;93665.00;5071708;28;19956;-34
2022/11/07 00:53:48;;;;;;;;;;;;;;;10.68;83.99;93652.88;5071579;28;20375;-34
2022/11/07 00:56:14;;;;;;;;;;;;;;;10.63;83.70;93663.53;5071271;28;19915;-34
2022/11/07 00:58:41;;;;;;;;;;;;;;;10.58;83.62;93664.44;5071262;28;20007;-34
2022/11/07 01:01:10;;;;;;;;;;;;;;;10.58;83.65;93664.44;5058865;28;19908;-34
2022/11/07 01:06:19;;;;;;;;;;;;;;;10.54;83.84;93657.78;5051432;28;19916;-34
2022/11/07 01:08:44;;;;;;;;;;;;;;;10.55;84.33;93659.25;5051148;28;20319;-34
2022/11/07 01:11:10;;;;;;;;;;;;;;;10.42;85.51;93657.31;5051501;28;19909;-34
2022/11/07 01:13:35;;;;;;;;;;;;;;;10.27;86.86;93657.22;5051382;28;20007;-34
2022/11/07 01:16:00;;;;;;;;;;;;;;;10.22;87.60;93660.88;5051331;28;19909;-34
2022/11/07 01:18:26;;;;;;;;;;;;;;;10.24;90.26;93658.34;5051099;28;20498;-34
2022/11/07 01:20:51;;;;;;;;;;;;;;;10.32;91.12;93661.13;5050893;28;19920;-34
2022/11/07 01:23:17;;;;;;;;;;;;;;;10.32;90.52;93667.41;5051245;28;19913;-34
2022/11/07 01:25:42;;;;;;;;;;;;;;;10.35;89.21;93657.28;5050067;28;19909;-34
2022/11/07 01:28:08;;;;;;;;;;;;;;;10.44;87.56;93663.03;5050928;28;19913;-34
2022/11/07 01:30:36;;;;;;;;;;;;;;;10.49;87.64;93664.19;5050844;28;19959;-34
2022/11/07 01:33:02;;;;;;;;;;;;;;;10.43;87.19;93656.06;5051095;28;19908;-34
2022/11/07 01:35:27;;;;;;;;;;;;;;;10.41;87.91;93655.88;5063047;28;20356;-34
2022/11/07 01:37:52;;;;;;;;;;;;;;;10.42;87.87;93656.59;5071049;28;19930;-34
2022/11/07 01:40:18;;;;;;;;;;;;;;;10.38;88.38;93658.94;5070614;28;20370;-34
2022/11/07 01:42:43;;;;;;;;;;;;;;;10.43;88.16;93664.34;5070827;28;20300;-34
2022/11/07 01:45:11;;;;;;;;;;;;;;;10.38;88.66;93665.22;5070752;28;20395;-34
2022/11/07 01:47:37;;;;;;;;;;;;;;;10.43;88.83;93661.59;5052796;28;19913;-34
2022/11/07 01:50:02;;;;;;;;;;;;;;;10.43;89.15;93661.59;5053072;28;19987;-34
2022/11/07 01:52:29;;;;;;;;;;;;;;;10.50;89.55;93660.88;5053108;28;20296;-34
2022/11/07 01:55:09;;;;;;;;;;;;;;;10.55;89.05;93656.47;5053086;28;19915;-34
2022/11/07 01:57:35;;;;;;;;;;;;;;;10.68;89.01;93655.66;5052953;28;19931;-34
2022/11/07 02:00:01;;;;;;;;;;;;;;;10.78;88.58;93657.34;5067381;28;19913;-34
2022/11/07 02:02:26;;;;;;;;;;;;;;;10.82;88.45;93659.75;5032842;28;20396;-34
2022/11/07 02:04:52;;;;;;;;;;;;;;;10.85;88.40;93655.91;5033044;28;20384;-34
2022/11/07 02:07:18;;;;;;;;;;;;;;;10.90;87.69;93647.47;5050541;28;20371;-34
2022/11/07 02:09:44;;;;;;;;;;;;;;;10.93;87.04;93651.91;5050680;28;20293;-34
2022/11/07 02:12:09;;;;;;;;;;;;;;;10.80;86.36;93648.53;5050528;28;19944;-34
2022/11/07 02:14:35;;;;;;;;;;;;;;;10.67;87.29;93646.63;5050376;28;19915;-34
2022/11/07 02:17:00;;;;;;;;;;;;;;;10.68;87.77;93650.13;5050602;28;19915;-34
2022/11/07 02:19:41;;;;;;;;;;;;;;;10.76;87.29;93650.91;5050313;28;19913;-34
2022/11/07 02:22:25;;;;;;;;;;;;;;;10.76;86.94;93654.41;5032867;28;19913;-34
2022/11/07 02:24:51;;;;;;;;;;;;;;;10.78;86.25;93653.84;5050004;28;20304;-34
2022/11/07 02:27:17;;;;;;;;;;;;;;;10.73;85.49;93652.72;5032885;28;19913;-34
2022/11/07 02:29:43;;;;;;;;;;;;;;;10.77;85.10;93649.59;5032527;28;19912;-34
2022/11/07 02:32:09;;;;;;;;;;;;;;;10.80;85.28;93649.25;5032383;28;19944;-34
2022/11/07 02:34:35;;;;;;;;;;;;;;;10.88;85.67;93658.31;5032502;28;19909;-34
2022/11/07 02:37:00;;;;;;;;;;;;;;;10.89;86.57;93648.00;5050320;28;19962;-34
2022/11/07 02:39:26;;;;;;;;;;;;;;;10.85;87.41;93651.09;5053782;28;19917;-34
2022/11/07 02:41:51;;;;;;;;;;;;;;;10.84;87.83;93654.44;5054243;28;19908;-34
2022/11/07 02:44:16;;;;;;;;;;;;;;;10.81;88.36;93649.97;5054193;28;19912;-34
2022/11/07 02:46:42;;;;;;;;;;;;;;;10.80;88.96;93648.53;5036429;28;19966;-34
2022/11/07 02:49:07;;;;;;;;;;;;;;;10.77;89.44;93653.09;5053951;28;20285;-34
2022/11/07 02:51:32;;;;;;;;;;;;;;;10.73;89.82;93651.97;5054101;28;19908;-34
2022/11/07 02:53:57;;;;;;;;;;;;;;;10.76;89.52;93657.16;5053833;28;19915;-34
2022/11/07 02:56:23;;;;;;;;;;;;;;;10.81;89.40;93658.28;5053951;28;19915;-34
2022/11/07 02:58:48;;;;;;;;;;;;;;;10.84;88.78;93652.41;5053601;28;20350;-34
2022/11/07 03:01:14;;;;;;;;;;;;;;;10.91;87.92;93659.25;5053907;28;20007;-34
2022/11/07 03:03:42;;;;;;;;;;;;;;;10.96;87.44;93655.59;5053914;28;19908;-34
2022/11/07 03:06:09;;;;;;;;;;;;;;;10.91;88.18;93660.00;5035861;28;19954;-34
2022/11/07 03:08:34;;;;;;;;;;;;;;;10.97;88.25;93657.06;5053465;28;19970;-34
2022/11/07 03:11:00;;;;;;;;;;;;;;;11.03;88.15;93666.66;5053740;28;19914;-34
2022/11/07 03:13:25;;;;;;;;;;;;;;;11.06;88.08;93668.34;5053662;28;19909;-34
2022/11/07 03:15:50;;;;;;;;;;;;;;;11.06;87.20;93664.84;5053633;28;19908;-34
2022/11/07 03:18:16;;;;;;;;;;;;;;;11.03;87.18;93671.44;5053615;28;19988;-34
2022/11/07 03:20:41;;;;;;;;;;;;;;;11.04;86.92;93672.94;5053220;28;19920;-34
2022/11/07 03:23:06;;;;;;;;;;;;;;;11.06;86.59;93670.38;5053218;28;19912;-34
2022/11/07 03:25:31;;;;;;;;;;;;;;;11.08;85.88;93673.31;5052822;28;19919;-34
2022/11/07 03:27:57;;;;;;;;;;;;;;;11.10;85.24;93685.31;5053088;28;19913;-34
2022/11/07 03:30:22;;;;;;;;;;;;;;;11.06;84.99;93684.94;5053054;28;19931;-34
2022/11/07 03:32:49;;;;;;;;;;;;;;;11.03;84.86;93676.97;5053024;28;19908;-34
2022/11/07 03:35:15;;;;;;;;;;;;;;;11.08;84.48;93685.13;5052971;28;19908;-34
2022/11/07 03:37:40;;;;;;;;;;;;;;;11.09;84.21;93683.06;5053233;28;19908;-34
2022/11/07 03:40:06;;;;;;;;;;;;;;;10.98;84.53;93686.91;5052682;28;19918;-34
2022/11/07 03:42:36;;;;;;;;;;;;;;;10.91;84.97;93687.63;5053169;28;20000;-34
2022/11/07 03:45:01;;;;;;;;;;;;;;;10.88;85.33;93685.94;5052873;28;20380;-34
2022/11/07 03:47:26;;;;;;;;;;;;;;;10.91;85.61;93682.09;5052860;28;19920;-34
2022/11/07 03:49:52;;;;;;;;;;;;;;;10.96;85.38;93683.94;5052466;28;19944;-34
2022/11/07 03:52:17;;;;;;;;;;;;;;;11.03;85.05;93686.00;5052760;28;20383;-34
2022/11/07 03:54:42;;;;;;;;;;;;;;;11.09;84.93;93685.84;5052683;28;19923;-34
2022/11/07 03:57:07;;;;;;;;;;;;;;;11.10;84.78;93684.56;5052892;28;19992;-34
2022/11/07 03:59:33;;;;;;;;;;;;;;;10.98;85.30;93686.19;5034971;28;20470;-34
2022/11/07 04:01:58;;;;;;;;;;;;;;;11.08;85.40;93678.84;5072306;28;20002;-34
2022/11/07 04:04:23;;;;;;;;;;;;;;;10.91;85.69;93686.88;5072541;28;20277;-34
2022/11/07 04:06:49;;;;;;;;;;;;;;;10.87;86.43;93692.00;5072551;28;20588;-34
2022/11/07 04:09:14;;;;;;;;;;;;;;;10.95;86.32;93682.47;5072432;28;19947;-34
2022/11/07 04:17:19;;;;;;;;;;;;;;;11.06;85.59;93684.94;5062916;28;20379;-34
2022/11/07 04:19:45;;;;;;;;;;;;;;;11.08;85.39;93695.44;5035677;28;19912;-34
2022/11/07 04:22:10;;;;;;;;;;;;;;;11.03;85.79;93690.78;5052427;28;19908;-34
2022/11/07 04:24:35;;;;;;;;;;;;;;;11.05;85.91;93690.97;5067335;28;19965;-34
2022/11/07 04:29:44;;;;;;;;;;;;;;;11.04;86.32;93690.25;5051944;28;20403;-34
2022/11/07 04:32:09;;;;;;;;;;;;;;;11.02;86.19;93692.09;5052183;28;19908;-34
2022/11/07 04:34:35;;;;;;;;;;;;;;;10.98;86.32;93700.72;5052170;28;19912;-34
2022/11/07 04:37:00;;;;;;;;;;;;;;;11.01;86.21;93705.16;5052011;28;20391;-34
2022/11/07 04:39:25;;;;;;;;;;;;;;;10.97;86.47;93710.31;5051465;28;19921;-34
2022/11/07 04:41:51;;;;;;;;;;;;;;;10.98;86.55;93709.00;5051721;28;19955;-34
2022/11/07 04:44:16;;;;;;;;;;;;;;;11.04;85.94;93712.38;5051750;28;19920;-34
2022/11/07 04:46:41;;;;;;;;;;;;;;;11.04;85.33;93714.38;5051889;28;20483;-34
2022/11/07 04:49:06;;;;;;;;;;;;;;;11.07;85.16;93707.75;5051854;28;19913;-34
2022/11/07 04:51:32;;;;;;;;;;;;;;;11.01;85.33;93718.97;5051842;28;20265;-34
2022/11/07 04:53:57;;;;;;;;;;;;;;;11.02;85.36;93722.47;5051533;28;19936;-34
2022/11/07 04:56:22;;;;;;;;;;;;;;;11.05;85.33;93715.84;5051748;28;19955;-34
2022/11/07 04:58:48;;;;;;;;;;;;;;;11.02;85.14;93720.44;5051386;28;20376;-34
2022/11/07 05:01:13;;;;;;;;;;;;;;;10.80;86.27;93723.84;5050559;28;19939;-34
2022/11/07 05:03:38;;;;;;;;;;;;;;;10.65;87.59;93723.75;5051557;28;19927;-34
2022/11/07 05:06:04;;;;;;;;;;;;;;;10.57;88.49;93734.72;5051305;28;20447;-34
2022/11/07 05:08:29;;;;;;;;;;;;;;;10.60;88.81;93728.13;5051523;28;19912;-34
2022/11/07 05:10:55;;;;;;;;;;;;;;;10.56;89.08;93733.25;5051191;28;20312;-34
2022/11/07 05:13:20;;;;;;;;;;;;;;;10.46;89.84;93735.00;5051160;28;19915;-34
2022/11/07 05:15:45;;;;;;;;;;;;;;;10.46;90.13;93734.28;5051022;28;19913;-34
2022/11/07 05:18:11;;;;;;;;;;;;;;;10.54;90.18;93735.06;5033641;28;19916;-34
2022/11/07 05:20:37;;;;;;;;;;;;;;;10.60;90.00;93741.94;5050943;28;20377;-34
2022/11/07 05:23:12;;;;;;;;;;;;;;;10.66;89.77;93731.47;5051130;28;19912;-34
2022/11/07 05:25:57;;;;;;;;;;;;;;;10.69;89.78;93729.66;5050669;28;20431;-34
2022/11/07 05:28:23;;;;;;;;;;;;;;;10.80;89.40;93737.66;5050271;28;20327;-34
2022/11/07 05:30:49;;;;;;;;;;;;;;;10.90;88.59;93738.63;5051246;28;19909;-34
2022/11/07 05:33:15;;;;;;;;;;;;;;;10.94;86.87;93741.03;5050855;28;20413;-34
2022/11/07 05:35:41;;;;;;;;;;;;;;;10.95;86.71;93740.50;5050883;28;19913;-34
2022/11/07 05:38:06;;;;;;;;;;;;;;;11.01;85.69;93743.09;5050820;28;20411;-34
2022/11/07 05:40:33;;;;;;;;;;;;;;;10.95;85.72;93745.28;5050590;28;20015;-34
2022/11/07 05:43:01;;;;;;;;;;;;;;;10.96;85.99;93753.00;5051031;28;20348;-34
2022/11/07 05:45:27;;;;;;;;;;;;;;;10.91;86.08;93745.63;5050736;28;19913;-34
2022/11/07 05:47:57;;;;;;;;;;;;;;;10.97;85.97;93757.25;5050678;28;19909;-34
2022/11/07 05:50:22;;;;;;;;;;;;;;;11.02;85.70;93759.13;5050562;28;19913;-34
2022/11/07 05:52:47;;;;;;;;;;;;;;;11.02;85.73;93758.41;5050621;28;19958;-34
2022/11/07 05:55:13;;;;;;;;;;;;;;;11.09;85.56;93771.50;5050618;28;19956;-34
2022/11/07 05:57:38;;;;;;;;;;;;;;;11.08;85.31;93772.78;5050853;28;20003;-34
2022/11/07 06:00:03;;;;;;;;;;;;;;;11.11;85.61;93782.78;5050490;28;20316;-34
2022/11/07 06:02:29;;;;;;;;;;;;;;;11.03;85.95;93781.97;5050514;28;19916;-34
2022/11/07 06:04:55;;;;;;;;;;;;;;;11.06;86.54;93786.41;5050773;28;19909;-34
2022/11/07 06:07:21;;;;;;;;;;;;;;;11.15;86.23;93780.41;5050556;28;19991;-34
2022/11/07 06:09:46;;;;;;;;;;;;;;;11.07;86.51;93782.34;5050376;28;19958;-34
2022/11/07 06:12:11;;;;;;;;;;;;;;;11.12;86.83;93784.97;5052472;28;19908;-34
2022/11/07 06:14:37;;;;;;;;;;;;;;;11.20;86.64;93785.00;5054394;28;19924;-34
2022/11/07 06:17:02;;;;;;;;;;;;;;;11.26;85.86;93791.13;5054404;28;19920;-34
2022/11/07 06:19:27;;;;;;;;;;;;;;;11.31;85.49;93799.25;5054409;28;19919;-34
2022/11/07 06:21:52;;;;;;;;;;;;;;;11.35;85.05;93796.13;5054595;28;19908;-34
2022/11/07 06:24:19;;;;;;;;;;;;;;;11.35;85.04;93798.91;5054662;28;19908;-34
2022/11/07 06:26:44;;;;;;;;;;;;;;;11.32;85.26;93795.22;5053888;28;19931;-34
2022/11/07 06:29:09;;;;;;;;;;;;;;;11.40;84.48;93800.78;5054198;28;19935;-34
2022/11/07 06:31:35;;;;;;;;;;;;;;;11.39;84.09;93810.38;5054475;28;19915;-34
2022/11/07 06:34:00;;;;;;;;;;;;;;;11.40;84.15;93809.06;5054485;28;20382;-34
2022/11/07 06:36:25;;;;;;;;;;;;;;;11.45;83.89;93808.19;5054146;28;20412;-34
2022/11/07 06:38:53;;;;;;;;;;;;;;;11.49;83.64;93813.34;5053905;28;20004;-34
2022/11/07 06:41:19;;;;;;;;;;;;;;;11.37;84.10;93812.91;5054042;28;19919;-34
2022/11/07 06:43:44;;;;;;;;;;;;;;;11.46;83.15;93820.72;5054252;28;19991;-34
2022/11/07 06:46:10;;;;;;;;;;;;;;;11.50;83.01;93812.09;5054207;28;20372;-34
2022/11/07 06:48:35;;;;;;;;;;;;;;;11.57;83.09;93823.16;5053890;28;19916;-34
2022/11/07 06:51:02;;;;;;;;;;;;;;;11.61;83.32;93815.25;5053901;28;19908;-34
2022/11/07 06:53:28;;;;;;;;;;;;;;;11.67;83.24;93820.66;5054089;28;19920;-34
2022/11/07 06:55:53;;;;;;;;;;;;;;;11.67;82.95;93817.91;5054058;28;20378;-34
2022/11/07 06:58:19;;;;;;;;;;;;;;;11.68;82.73;93820.13;5053654;28;19908;-34
2022/11/07 07:00:44;;;;;;;;;;;;;;;11.70;83.04;93814.78;5035914;28;19909;-34
2022/11/07 07:03:10;;;;;;;;;;;;;;;11.74;83.56;93815.16;5053612;28;19913;-34
2022/11/07 07:05:35;;;;;;;;;;;;;;;11.75;83.47;93824.94;5036034;28;19940;-34
2022/11/07 07:08:01;;;;;;;;;;;;;;;11.77;82.91;93825.13;5053545;28;19916;-34
2022/11/07 07:10:26;;;;;;;;;;;;;;;11.83;81.94;93822.94;5053706;28;19913;-34
2022/11/07 07:12:55;;;;;;;;;;;;;;;11.90;81.06;93825.00;5053456;28;20323;-34
2022/11/07 07:15:20;;;;;;;;;;;;;;;11.95;80.89;93824.06;5053671;28;19909;-34
2022/11/07 07:17:46;;;;;;;;;;;;;;;11.99;80.87;93824.47;5053254;28;20576;-34
2022/11/07 07:20:11;;;;;;;;;;;;;;;12.01;80.42;93821.91;5053539;28;19909;-34
2022/11/07 07:22:36;;;;;;;;;;;;;;;12.03;79.99;93824.84;5035166;28;19935;-34
2022/11/07 07:25:01;;;;;;;;;;;;;;;12.09;79.31;93814.34;5052671;28;19999;-34
2022/11/07 07:27:27;;;;;;;;;;;;;;;12.15;78.73;93812.16;5053448;28;19970;-34
2022/11/07 07:29:52;;;;;;;;;;;;;;;12.22;78.45;93818.97;5053051;28;20381;-34
2022/11/07 07:32:18;;;;;;;;;;;;;;;12.25;78.39;93817.91;5053317;28;19996;-34
2022/11/07 07:34:43;;;;;;;;;;;;;;;12.28;77.52;93819.53;5053354;28;19909;-34
2022/11/07 07:37:08;;;;;;;;;;;;;;;12.28;77.54;93824.38;5053328;28;19916;-34
2022/11/07 07:39:34;;;;;;;;;;;;;;;12.25;77.37;93825.47;5052751;28;20439;-34
2022/11/07 07:41:59;;;;;;;;;;;;;;;12.36;77.05;93822.34;5053163;28;19915;-34
2022/11/07 07:44:24;;;;;;;;;;;;;;;12.42;77.51;93831.22;5052807;28;19960;-34
2022/11/07 07:46:49;;;;;;;;;;;;;;;12.51;77.39;93836.94;5053103;28;19951;-34
2022/11/07 07:49:15;;;;;;;;;;;;;;;12.57;76.85;93831.97;5052737;28;19936;-34
2022/11/07 07:51:40;;;;;;;;;;;;;;;12.63;76.78;93838.06;5052695;28;19916;-34
2022/11/07 07:54:05;;;;;;;;;;;;;;;12.75;76.68;93838.44;5052929;28;19998;-34
2022/11/07 07:56:31;;;;;;;;;;;;;;;12.78;76.81;93843.63;5052689;28;19908;-34
2022/11/07 07:58:56;;;;;;;;;;;;;;;12.83;75.94;93839.19;5052776;28;19972;-34
2022/11/07 08:01:21;;;;;;;;;;;;;;;12.86;76.28;93841.56;5052825;28;20054;-34
2022/11/07 08:03:46;;;;;;;;;;;;;;;12.86;74.58;93843.63;5052738;28;19913;-34
2022/11/07 08:06:12;;;;;;;;;;;;;;;12.85;74.62;93847.69;5052779;28;19912;-34
2022/11/07 08:08:37;;;;;;;;;;;;;;;12.79;75.38;93850.66;5052331;28;19935;-34
2022/11/07 08:11:03;;;;;;;;;;;;;;;12.79;76.10;93860.97;5052383;28;19909;-34
2022/11/07 08:13:29;;;;;;;;;;;;;;;12.84;76.13;93863.56;5052361;28;20347;-34
2022/11/07 08:15:54;;;;;;;;;;;;;;;12.83;76.16;93853.03;5052190;28;19908;-34
2022/11/07 08:18:20;;;;;;;;;;;;;;;12.78;76.88;93851.94;5052435;28;19909;-34
2022/11/07 08:20:55;;;;;;;;;;;;;;;12.75;77.36;93860.63;5034265;28;20324;-34
2022/11/07 08:23:20;;;;;;;;;;;;;;;12.81;77.39;93863.94;5052534;28;20347;-34
2022/11/07 08:25:53;;;;;;;;;;;;;;;12.80;76.18;93859.69;5025728;28;19966;-34
2022/11/07 08:28:19;;;;;;;;;;;;;;;12.81;75.65;93852.84;5032626;28;19909;-34
2022/11/07 08:30:44;;;;;;;;;;;;;;;12.84;75.80;93854.53;5052062;28;19962;-34
2022/11/07 08:33:10;;;;;;;;;;;;;;;12.94;74.75;93861.00;5051920;28;19912;-34
2022/11/07 08:35:35;;;;;;;;;;;;;;;13.08;74.53;93853.25;5051880;28;19952;-34
2022/11/07 08:38:00;;;;;;;;;;;;;;;13.13;74.19;93855.09;5051901;28;19962;-34
2022/11/07 08:40:26;;;;;;;;;;;;;;;13.27;73.76;93851.56;5051623;28;20024;-34
2022/11/07 08:42:51;;;;;;;;;;;;;;;13.43;73.20;93858.56;5051775;28;19908;-34
2022/11/07 08:45:16;;;;;;;;;;;;;;;13.53;72.58;93853.19;5051834;28;19913;-34
2022/11/07 08:47:42;;;;;;;;;;;;;;;13.68;72.81;93858.69;5052024;28;19920;-34
2022/11/07 08:50:07;;;;;;;;;;;;;;;13.84;72.21;93856.63;5051569;28;20010;-34
2022/11/07 08:52:33;;;;;;;;;;;;;;;13.94;71.23;93852.69;5051698;28;19909;-34
2022/11/07 08:54:58;;;;;;;;;;;;;;;14.02;70.32;93858.94;5051811;28;19909;-34
2022/11/07 08:57:24;;;;;;;;;;;;;;;14.11;69.99;93852.81;5051570;28;19999;-34
2022/11/07 08:59:49;;;;;;;;;;;;;;;14.15;70.68;93857.97;5051642;28;19919;-34
2022/11/07 09:02:14;;;;;;;;;;;;;;;14.21;66.62;93853.69;5051709;28;19939;-34
2022/11/07 09:04:39;;;;;;;;;;;;;;;14.16;66.11;93856.69;5051416;28;19908;-34
2022/11/07 09:07:05;;;;;;;;;;;;;;;14.11;66.88;93849.28;5051666;28;19908;-34
2022/11/07 09:09:30;;;;;;;;;;;;;;;14.14;67.87;93845.41;5051334;28;19913;-34
2022/11/07 09:11:55;;;;;;;;;;;;;;;14.20;67.64;93843.13;5051269;28;19912;-34
2022/11/07 09:14:21;;;;;;;;;;;;;;;14.35;67.80;93845.88;5051487;28;19952;-34
2022/11/07 09:16:46;;;;;;;;;;;;;;;14.55;66.70;93844.81;5051155;28;20368;-34
2022/11/07 09:19:11;;;;;;;;;;;;;;;14.78;65.67;93850.97;5051115;28;19920;-34
2022/11/07 09:21:36;;;;;;;;;;;;;;;14.93;65.43;93850.84;5051371;28;19919;-34
2022/11/07 09:24:02;;;;;;;;;;;;;;;14.71;64.28;93851.00;5051412;28;19909;-34
2022/11/07 09:26:27;;;;;;;;;;;;;;;14.88;65.01;93857.38;5050693;28;19909;-34
2022/11/07 09:28:53;;;;;;;;;;;;;;;14.97;65.26;93853.22;5050899;28;20003;-34
2022/11/07 09:31:18;;;;;;;;;;;;;;;15.02;65.65;93849.47;5051236;28;19916;-34
2022/11/07 09:33:43;;;;;;;;;;;;;;;15.03;64.78;93853.72;5050899;28;19908;-34
2022/11/07 09:36:10;;;;;;;;;;;;;;;15.06;65.55;93850.56;5051215;28;19908;-34
2022/11/07 09:38:35;;;;;;;;;;;;;;;15.15;64.95;93843.63;5050932;28;19921;-34
2022/11/07 09:41:05;;;;;;;;;;;;;;;15.29;64.28;93838.50;5050833;28;19912;-34
2022/11/07 09:43:30;;;;;;;;;;;;;;;15.54;64.34;93831.59;5050826;28;19956;-34
2022/11/07 09:46:14;;;;;;;;;;;;;;;15.82;63.44;93831.13;5050386;28;19948;-34
2022/11/07 09:48:43;;;;;;;;;;;;;;;16.25;61.94;93838.03;5050725;28;19908;-35
2022/11/07 09:51:12;;;;;;;;;;;;;;;16.53;60.87;93839.53;5051000;28;19932;-35
2022/11/07 09:53:40;;;;;;;;;;;;;;;16.59;59.31;93831.63;5032982;28;19915;-34
2022/11/07 09:56:05;;;;;;;;;;;;;;;16.68;58.98;93826.13;5051159;28;20304;-34
2022/11/07 09:58:31;;;;;;;;;;;;;;;16.79;59.10;93821.31;5032935;28;19913;-34
2022/11/07 10:00:58;;;;;;;;;;;;;;;16.79;59.97;93815.72;5050500;28;19939;-35
2022/11/07 10:03:23;;;;;;;;;;;;;;;16.78;58.35;93809.44;5050650;28;19908;-34
2022/11/07 10:05:50;;;;;;;;;;;;;;;16.66;59.03;93814.06;5050501;28;19927;-34
2022/11/07 10:08:31;;;;;;;;;;;;;;;16.86;58.21;93812.09;5033109;28;19917;-34
2022/11/07 10:10:58;;;;;;;;;;;;;;;17.38;56.23;93810.50;5033081;28;19979;-34
2022/11/07 10:13:26;;;;;;;;;;;;;;;17.58;56.82;93812.03;5050599;28;20046;-34
2022/11/07 10:16:09;;;;;;;;;;;;;;;17.88;56.04;93797.47;5050725;28;20007;-34
2022/11/07 10:18:38;;;;;;;;;;;;;;;18.15;55.25;93803.63;5011204;28;19940;-34
2022/11/07 10:21:22;;;;;;;;;;;;;;;18.12;54.89;93799.22;5010832;28;19914;-35
2022/11/07 10:24:05;;;;;;;;;;;;;;;17.82;54.08;93791.44;5010890;28;19970;-34
2022/11/07 10:26:31;;;;;;;;;;;;;;;17.72;54.45;93789.97;5039976;28;19913;-34
2022/11/07 10:28:58;;;;;;;;;;;;;;;17.99;53.12;93790.56;5032852;28;19912;-34
2022/11/07 10:31:23;;;;;;;;;;;;;;;18.71;50.71;93778.22;5032908;28;19961;-34
2022/11/07 10:33:59;;;;;;;;;;;;;;;19.02;48.45;93783.81;5050277;28;19908;-34
2022/11/07 10:36:29;;;;;;;;;;;;;;;18.75;49.01;93784.09;5032585;28;19908;-34
2022/11/07 10:38:54;;;;;;;;;;;;;;;19.08;50.96;93784.97;5050062;28;19916;-34
2022/11/07 10:41:21;;;;;;;;;;;;;;;19.31;50.40;93776.00;5050527;28;19913;-34
2022/11/07 10:43:51;;;;;;;;;;;;;;;19.33;50.78;93779.69;5050481;28;20529;-34
2022/11/07 10:46:30;;;;;;;;;;;;;;;19.90;49.59;93784.16;5050561;28;19935;-34
2022/11/07 10:48:59;;;;;;;;;;;;;;;19.91;48.28;93782.06;5032674;28;19909;-34
2022/11/07 10:51:34;;;;;;;;;;;;;;;19.68;47.75;93779.91;5032779;28;19916;-34
2022/11/07 10:53:59;;;;;;;;;;;;;;;19.05;49.92;93774.22;5050112;28;19910;-34
2022/11/07 10:56:24;;;;;;;;;;;;;;;18.67;51.13;93767.47;5050432;28;19916;-34
2022/11/07 10:58:50;;;;;;;;;;;;;;;18.52;52.09;93773.41;5051324;28;19908;-34
2022/11/07 11:01:15;;;;;;;;;;;;;;;18.08;51.60;93773.78;5053792;28;19916;-34
2022/11/07 11:03:40;;;;;;;;;;;;;;;17.71;52.90;93760.59;5035345;28;19919;-34
2022/11/07 11:06:09;;;;;;;;;;;;;;;17.57;53.36;93770.72;5053571;28;19908;-34
2022/11/07 11:08:35;;;;;;;;;;;;;;;17.49;53.73;93772.88;5053477;28;20016;-34
2022/11/07 11:11:01;;;;;;;;;;;;;;;17.29;53.45;93772.88;5053189;28;19915;-34
2022/11/07 11:13:29;;;;;;;;;;;;;;;17.16;54.40;93766.97;5035233;28;20340;-34
2022/11/07 11:15:55;;;;;;;;;;;;;;;17.58;54.32;93758.97;5053489;28;19913;-34
2022/11/07 11:18:21;;;;;;;;;;;;;;;18.49;53.05;93754.31;5053703;28;19909;-34
2022/11/07 11:20:56;;;;;;;;;;;;;;;18.63;51.33;93750.41;5053333;28;19912;-34
2022/11/07 11:23:22;;;;;;;;;;;;;;;18.80;51.58;93749.44;5035951;28;20320;-34
2022/11/07 11:25:48;;;;;;;;;;;;;;;19.40;48.42;93744.44;5026376;28;19913;-34
2022/11/07 11:28:19;;;;;;;;;;;;;;;19.89;48.53;93742.72;5033630;28;19916;-34
2022/11/07 11:30:45;;;;;;;;;;;;;;;20.41;47.09;93732.06;5033599;28;19909;-34
2022/11/07 11:33:19;;;;;;;;;;;;;;;20.76;44.80;93729.28;5015579;28;19964;-34
2022/11/07 11:35:54;;;;;;;;;;;;;;;21.13;44.50;93721.75;5033578;28;20339;-34
2022/11/07 11:38:23;;;;;;;;;;;;;;;21.07;43.77;93719.28;5016916;28;19909;-35
2022/11/07 11:40:50;;;;;;;;;;;;;;;21.14;44.34;93718.31;5035499;28;19912;-35
2022/11/07 11:43:20;;;;;;;;;;;;;;;20.85;43.44;93717.94;5035233;28;20396;-35
2022/11/07 11:45:58;;;;;;;;;;;;;;;20.53;45.95;93715.25;5052968;28;19909;-34
2022/11/07 11:48:24;;;;;;;;;;;;;;;20.66;45.48;93718.16;5035169;28;19908;-34
2022/11/07 11:51:12;;;;;;;;;;;;;;;21.00;44.33;93711.09;5053057;28;19912;-35
2022/11/07 11:53:37;;;;;;;;;;;;;;;21.17;43.84;93710.75;5034996;28;19916;-34
2022/11/07 11:56:05;;;;;;;;;;;;;;;21.26;43.87;93709.88;5053072;28;19924;-35
2022/11/07 11:58:49;;;;;;;;;;;;;;;21.37;42.96;93709.13;5052506;28;19955;-35
2022/11/07 12:01:23;;;;;;;;;;;;;;;21.38;43.17;93707.03;5066473;28;19913;-35
2022/11/07 12:03:58;;;;;;;;;;;;;;;21.28;42.60;93703.63;5072860;28;19908;-34
2022/11/07 12:06:25;;;;;;;;;;;;;;;21.17;43.60;93695.97;5072682;28;19912;-34
2022/11/07 12:08:54;;;;;;;;;;;;;;;21.26;43.57;93695.84;5072351;28;19916;-35
2022/11/07 12:11:37;;;;;;;;;;;;;;;21.29;43.06;93697.41;5054498;28;19908;-34
2022/11/07 12:14:14;;;;;;;;;;;;;;;21.16;42.44;93691.72;5054745;28;19916;-34
2022/11/07 12:16:44;;;;;;;;;;;;;;;20.86;42.65;93682.19;5049254;28;20357;-34
2022/11/07 12:19:23;;;;;;;;;;;;;;;20.65;43.06;93691.47;5034488;28;19908;-34
2022/11/07 12:21:48;;;;;;;;;;;;;;;20.67;43.98;93688.78;5034384;28;19909;-34
2022/11/07 12:24:19;;;;;;;;;;;;;;;20.68;45.00;93683.91;5052305;28;19951;-35
2022/11/07 12:26:50;;;;;;;;;;;;;;;20.59;44.73;93693.91;5051827;28;19916;-35
2022/11/07 12:29:16;;;;;;;;;;;;;;;20.17;46.12;93694.06;5052331;28;19916;-34
2022/11/07 12:31:44;;;;;;;;;;;;;;;19.68;47.97;93693.06;5052024;28;20355;-34
2022/11/07 12:34:16;;;;;;;;;;;;;;;19.67;48.28;93689.53;5052204;28;20311;-34
2022/11/07 12:36:50;;;;;;;;;;;;;;;19.54;47.63;93695.69;5052277;28;19939;-34
2022/11/07 12:39:27;;;;;;;;;;;;;;;19.37;48.77;93693.16;5051646;28;19925;-34
2022/11/07 12:42:11;;;;;;;;;;;;;;;19.20;48.92;93693.41;5051815;28;20331;-34
2022/11/07 12:44:42;;;;;;;;;;;;;;;18.76;50.32;93696.78;5052040;28;19915;-34
2022/11/07 12:47:26;;;;;;;;;;;;;;;18.70;51.57;93690.03;5051722;28;19962;-34
2022/11/07 12:49:51;;;;;;;;;;;;;;;18.35;51.97;93695.31;5051660;28;19909;-34
2022/11/07 12:52:35;;;;;;;;;;;;;;;18.26;52.58;93695.34;5051989;28;19919;-34
2022/11/07 12:55:11;;;;;;;;;;;;;;;18.18;53.27;93696.25;5051477;28;19913;-34
2022/11/07 12:57:36;;;;;;;;;;;;;;;18.05;53.64;93693.19;5033849;28;19909;-34